sensor_id;sensor_type;location;lat;lon;timestamp;pressure;altitude;pressure_sealevel;temperature;humidity
19748;BME280;10032;51.386;12.516;2022-12-16T00:01:15;99591.53;;;-6.94;100.00
19748;BME280;10032;51.386;12.516;2022-12-16T00:03:41;99595.13;;;-6.95;100.00
19748;BME280;10032;51.386;12.516;2022-12-16T00:06:10;99591.84;;;-6.97;100.00
19748;BME280;10032;51.386;12.516;2022-12-16T00:08:37;99597.78;;;-6.95;100.00
19748;BME280;10032;51.386;12.516;2022-12-16T00:11:04;99596.19;;;-6.88;100.00
19748;BME280;10032;51.386;12.516;2022-12-16T00:13:31;99595.59;;;-6.82;100.00
19748;BME280;10032;51.386;12.516;2022-12-16T00:15:57;99592.78;;;-6.81;100.00
19748;BME280;10032;51.386;12.516;2022-12-16T00:18:24;99594.75;;;-6.83;100.00
19748;BME280;10032;51.386;12.516;2022-12-16T00:20:53;99596.38;;;-6.82;100.00
19748;BME280;10032;51.386;12.516;2022-12-16T00:23:20;99595.59;;;-6.82;100.00
19748;BME280;10032;51.386;12.516;2022-12-16T00:25:46;99590.09;;;-6.89;100.00
19748;BME280;10032;51.386;12.516;2022-12-16T00:28:13;99595.66;;;-6.92;100.00
19748;BME280;10032;51.386;12.516;2022-12-16T00:30:40;99593.72;;;-6.90;100.00
19748;BME280;10032;51.386;12.516;2022-12-16T00:33:06;99596.19;;;-6.88;100.00
19748;BME280;10032;51.386;12.516;2022-12-16T00:35:31;99608.06;;;-6.84;100.00
19748;BME280;10032;51.386;12.516;2022-12-16T00:37:57;99598.47;;;-6.93;100.00
19748;BME280;10032;51.386;12.516;2022-12-16T00:40:22;99594.84;;;-6.92;100.00
19748;BME280;10032;51.386;12.516;2022-12-16T00:42:48;99598.63;;;-6.95;100.00
19748;BME280;10032;51.386;12.516;2022-12-16T00:45:13;99600.25;;;-6.94;100.00
19748;BME280;10032;51.386;12.516;2022-12-16T00:47:39;99594.22;;;-6.86;100.00
19748;BME280;10032;51.386;12.516;2022-12-16T00:50:05;99594.22;;;-6.86;100.00
19748;BME280;10032;51.386;12.516;2022-12-16T00:52:30;99587.31;;;-6.87;100.00
19748;BME280;10032;51.386;12.516;2022-12-16T00:54:56;99581.72;;;-6.84;100.00
19748;BME280;10032;51.386;12.516;2022-12-16T00:57:21;99584.72;;;-6.79;100.00
19748;BME280;10032;51.386;12.516;2022-12-16T00:59:47;99575.56;;;-6.75;100.00
19748;BME280;10032;51.386;12.516;2022-12-16T01:02:12;99577.88;;;-6.72;100.00
19748;BME280;10032;51.386;12.516;2022-12-16T01:04:39;99576.56;;;-6.68;100.00
19748;BME280;10032;51.386;12.516;2022-12-16T01:07:04;99561.81;;;-6.61;100.00
19748;BME280;10032;51.386;12.516;2022-12-16T01:09:30;99567.81;;;-6.51;100.00
19748;BME280;10032;51.386;12.516;2022-12-16T01:11:55;99568.50;;;-6.41;100.00
19748;BME280;10032;51.386;12.516;2022-12-16T01:14:21;99570.53;;;-6.35;100.00
19748;BME280;10032;51.386;12.516;2022-12-16T01:16:46;99570.88;;;-6.30;100.00
19748;BME280;10032;51.386;12.516;2022-12-16T01:19:11;99575.19;;;-6.21;100.00
19748;BME280;10032;51.386;12.516;2022-12-16T01:21:37;99593.19;;;-6.17;100.00
19748;BME280;10032;51.386;12.516;2022-12-16T01:24:03;99595.34;;;-6.12;100.00
19748;BME280;10032;51.386;12.516;2022-12-16T01:26:28;99582.81;;;-6.10;100.00
19748;BME280;10032;51.386;12.516;2022-12-16T01:28:54;99604.22;;;-6.13;100.00
19748;BME280;10032;51.386;12.516;2022-12-16T01:31:19;99598.97;;;-6.13;100.00
19748;BME280;10032;51.386;12.516;2022-12-16T01:33:45;99594.81;;;-6.16;100.00
19748;BME280;10032;51.386;12.516;2022-12-16T01:36:11;99594.00;;;-6.16;100.00
19748;BME280;10032;51.386;12.516;2022-12-16T01:38:37;99595.34;;;-6.12;100.00
19748;BME280;10032;51.386;12.516;2022-12-16T01:41:03;99592.53;;;-6.11;100.00
19748;BME280;10032;51.386;12.516;2022-12-16T01:43:32;99584.59;;;-6.19;100.00
19748;BME280;10032;51.386;12.516;2022-12-16T01:46:22;99587.56;;;-6.22;100.00
19748;BME280;10032;51.386;12.516;2022-12-16T01:48:58;99584.56;;;-6.27;100.00
19748;BME280;10032;51.386;12.516;2022-12-16T01:51:36;99589.97;;;-6.28;100.00
19748;BME280;10032;51.386;12.516;2022-12-16T01:54:17;99586.69;;;-6.30;100.00
19748;BME280;10032;51.386;12.516;2022-12-16T01:56:48;99589.97;;;-6.28;100.00
19748;BME280;10032;51.386;12.516;2022-12-16T01:59:16;99589.66;;;-6.25;100.00
19748;BME280;10032;51.386;12.516;2022-12-16T02:01:43;99584.91;;;-6.22;100.00
19748;BME280;10032;51.386;12.516;2022-12-16T02:04:08;99583.78;;;-6.19;100.00
19748;BME280;10032;51.386;12.516;2022-12-16T02:06:34;99582.09;;;-6.20;100.00
19748;BME280;10032;51.386;12.516;2022-12-16T02:09:02;99577.16;;;-6.23;100.00
19748;BME280;10032;51.386;12.516;2022-12-16T02:28:08;99563.66;;;-6.20;100.00
19748;BME280;10032;51.386;12.516;2022-12-16T02:30:48;99567.97;;;-6.19;100.00
19748;BME280;10032;51.386;12.516;2022-12-16T02:36:30;99573.53;;;-6.22;100.00
19748;BME280;10032;51.386;12.516;2022-12-16T02:39:18;99569.91;;;-6.21;100.00
19748;BME280;10032;51.386;12.516;2022-12-16T02:47:13;99567.78;;;-6.26;100.00
19748;BME280;10032;51.386;12.516;2022-12-16T02:49:47;99574.53;;;-6.23;100.00
19748;BME280;10032;51.386;12.516;2022-12-16T02:52:15;99580.81;;;-6.16;100.00
19748;BME280;10032;51.386;12.516;2022-12-16T02:54:42;99583.28;;;-6.15;100.00
19748;BME280;10032;51.386;12.516;2022-12-16T02:57:40;99577.53;;;-6.18;100.00
19748;BME280;10032;51.386;12.516;2022-12-16T03:00:14;99576.84;;;-6.20;100.00
19748;BME280;10032;51.386;12.516;2022-12-16T03:07:55;99580.09;;;-6.34;100.00
19748;BME280;10032;51.386;12.516;2022-12-16T03:10:26;99578.88;;;-6.40;100.00
19748;BME280;10032;51.386;12.516;2022-12-16T03:12:55;99577.38;;;-6.50;100.00
19748;BME280;10032;51.386;12.516;2022-12-16T03:15:25;99570.97;;;-6.48;100.00
19748;BME280;10032;51.386;12.516;2022-12-16T03:17:53;99573.59;;;-6.48;100.00
19748;BME280;10032;51.386;12.516;2022-12-16T03:20:30;99589.69;;;-6.51;100.00
19748;BME280;10032;51.386;12.516;2022-12-16T03:23:00;99588.19;;;-6.53;100.00
19748;BME280;10032;51.386;12.516;2022-12-16T03:25:28;99596.09;;;-6.53;100.00
19748;BME280;10032;51.386;12.516;2022-12-16T03:30:42;99590.81;;;-6.53;100.00
19748;BME280;10032;51.386;12.516;2022-12-16T03:33:15;99593.78;;;-6.56;100.00
19748;BME280;10032;51.386;12.516;2022-12-16T03:35:50;99599.56;;;-6.53;100.00
19748;BME280;10032;51.386;12.516;2022-12-16T03:38:19;99598.72;;;-6.53;100.00
19748;BME280;10032;51.386;12.516;2022-12-16T03:40:46;99599.19;;;-6.58;100.00
19748;BME280;10032;51.386;12.516;2022-12-16T03:43:14;99594.75;;;-6.57;100.00
19748;BME280;10032;51.386;12.516;2022-12-16T03:45:42;99610.09;;;-6.53;100.00
19748;BME280;10032;51.386;12.516;2022-12-16T03:48:11;99604.34;;;-6.48;100.00
19748;BME280;10032;51.386;12.516;2022-12-16T03:50:37;99606.31;;;-6.50;100.00
19748;BME280;10032;51.386;12.516;2022-12-16T03:53:04;99612.41;;;-6.50;100.00
19748;BME280;10032;51.386;12.516;2022-12-16T03:55:30;99603.97;;;-6.61;100.00
19748;BME280;10032;51.386;12.516;2022-12-16T03:57:56;99612.63;;;-6.69;100.00
19748;BME280;10032;51.386;12.516;2022-12-16T04:00:22;99608.50;;;-6.71;100.00
19748;BME280;10032;51.386;12.516;2022-12-16T04:02:48;99609.00;;;-6.68;100.00
19748;BME280;10032;51.386;12.516;2022-12-16T04:05:14;99602.91;;;-6.68;100.00
19748;BME280;10032;51.386;12.516;2022-12-16T04:07:40;99606.38;;;-6.68;100.00
19748;BME280;10032;51.386;12.516;2022-12-16T04:10:06;99606.22;;;-6.66;100.00
19748;BME280;10032;51.386;12.516;2022-12-16T04:12:31;99604.03;;;-6.71;100.00
19748;BME280;10032;51.386;12.516;2022-12-16T04:15:15;99603.53;;;-6.74;100.00
19748;BME280;10032;51.386;12.516;2022-12-16T04:17:59;99604.88;;;-6.70;100.00
19748;BME280;10032;51.386;12.516;2022-12-16T04:20:46;99599.81;;;-6.64;100.00
19748;BME280;10032;51.386;12.516;2022-12-16T04:23:33;99597.84;;;-6.62;100.00
19748;BME280;10032;51.386;12.516;2022-12-16T04:26:18;99602.28;;;-6.62;100.00
19748;BME280;10032;51.386;12.516;2022-12-16T04:28:44;99607.91;;;-6.57;100.00
19748;BME280;10032;51.386;12.516;2022-12-16T04:31:10;99615.50;;;-6.54;100.00
19748;BME280;10032;51.386;12.516;2022-12-16T04:33:35;99615.38;;;-6.53;100.00
19748;BME280;10032;51.386;12.516;2022-12-16T04:36:19;99618.50;;;-6.49;100.00
19748;BME280;10032;51.386;12.516;2022-12-16T04:39:03;99616.59;;;-6.65;100.00
19748;BME280;10032;51.386;12.516;2022-12-16T04:41:51;99615.09;;;-6.67;100.00
19748;BME280;10032;51.386;12.516;2022-12-16T04:44:35;99613.66;;;-6.62;100.00
19748;BME280;10032;51.386;12.516;2022-12-16T04:47:19;99613.34;;;-6.59;100.00
19748;BME280;10032;51.386;12.516;2022-12-16T04:50:04;99623.88;;;-6.59;100.00
19748;BME280;10032;51.386;12.516;2022-12-16T04:52:52;99614.16;;;-6.58;100.00
19748;BME280;10032;51.386;12.516;2022-12-16T04:55:36;99618.44;;;-6.57;100.00
19748;BME280;10032;51.386;12.516;2022-12-16T04:58:20;99627.19;;;-6.57;100.00
19748;BME280;10032;51.386;12.516;2022-12-16T05:01:04;99617.00;;;-6.52;100.00
19748;BME280;10032;51.386;12.516;2022-12-16T05:03:48;99629.03;;;-6.49;100.00
19748;BME280;10032;51.386;12.516;2022-12-16T05:06:32;99633.81;;;-6.53;100.00
19748;BME280;10032;51.386;12.516;2022-12-16T05:09:16;99642.47;;;-6.60;100.00
19748;BME280;10032;51.386;12.516;2022-12-16T05:12:00;99646.22;;;-6.63;100.00
19748;BME280;10032;51.386;12.516;2022-12-16T05:14:57;99650.28;;;-6.68;100.00
19748;BME280;10032;51.386;12.516;2022-12-16T05:17:41;99646.25;;;-6.80;100.00
19748;BME280;10032;51.386;12.516;2022-12-16T05:20:28;99640.94;;;-6.88;100.00
19748;BME280;10032;51.386;12.516;2022-12-16T05:23:12;99636.81;;;-6.91;100.00
19748;BME280;10032;51.386;12.516;2022-12-16T05:25:56;99645.50;;;-6.90;100.00
19748;BME280;10032;51.386;12.516;2022-12-16T05:28:39;99650.78;;;-6.90;100.00
19748;BME280;10032;51.386;12.516;2022-12-16T05:31:23;99643.88;;;-6.91;100.00
19748;BME280;10032;51.386;12.516;2022-12-16T05:34:07;99640.84;;;-6.96;100.00
19748;BME280;10032;51.386;12.516;2022-12-16T05:36:51;99648.09;;;-6.98;100.00
19748;BME280;10032;51.386;12.516;2022-12-16T05:39:55;99652.13;;;-7.04;100.00
19748;BME280;10032;51.386;12.516;2022-12-16T05:42:39;99648.63;;;-6.95;100.00
19748;BME280;10032;51.386;12.516;2022-12-16T05:45:23;99662.00;;;-6.88;100.00
19748;BME280;10032;51.386;12.516;2022-12-16T05:48:06;99662.28;;;-6.91;100.00
19748;BME280;10032;51.386;12.516;2022-12-16T05:50:50;99655.00;;;-6.97;100.00
19748;BME280;10032;51.386;12.516;2022-12-16T05:53:34;99661.06;;;-6.97;100.00
19748;BME280;10032;51.386;12.516;2022-12-16T05:56:18;99663.28;;;-6.92;100.00
19748;BME280;10032;51.386;12.516;2022-12-16T05:59:02;99669.06;;;-6.89;100.00
19748;BME280;10032;51.386;12.516;2022-12-16T06:01:46;99668.22;;;-6.89;100.00
19748;BME280;10032;51.386;12.516;2022-12-16T06:04:30;99672.44;;;-6.96;100.00
19748;BME280;10032;51.386;12.516;2022-12-16T06:07:14;99677.94;;;-7.07;100.00
19748;BME280;10032;51.386;12.516;2022-12-16T06:09:57;99685.44;;;-7.12;100.00
19748;BME280;10032;51.386;12.516;2022-12-16T06:12:45;99693.78;;;-7.17;100.00
19748;BME280;10032;51.386;12.516;2022-12-16T06:15:29;99702.81;;;-7.19;100.00
19748;BME280;10032;51.386;12.516;2022-12-16T06:18:13;99709.72;;;-7.18;100.00
19748;BME280;10032;51.386;12.516;2022-12-16T06:20:57;99709.72;;;-7.18;100.00
19748;BME280;10032;51.386;12.516;2022-12-16T06:23:41;99717.47;;;-7.17;100.00
19748;BME280;10032;51.386;12.516;2022-12-16T06:26:25;99711.59;;;-7.11;100.00
19748;BME280;10032;51.386;12.516;2022-12-16T06:29:09;99707.47;;;-7.13;100.00
19748;BME280;10032;51.386;12.516;2022-12-16T06:31:53;99715.75;;;-7.08;100.00
19748;BME280;10032;51.386;12.516;2022-12-16T06:34:37;99725.44;;;-7.09;100.00
19748;BME280;10032;51.386;12.516;2022-12-16T06:37:21;99725.44;;;-7.09;100.00
19748;BME280;10032;51.386;12.516;2022-12-16T06:40:05;99731.81;;;-7.11;100.00
19748;BME280;10032;51.386;12.516;2022-12-16T06:42:49;99736.69;;;-7.16;100.00
19748;BME280;10032;51.386;12.516;2022-12-16T06:45:33;99746.84;;;-7.21;100.00
19748;BME280;10032;51.386;12.516;2022-12-16T06:48:17;99755.47;;;-7.29;100.00
19748;BME280;10032;51.386;12.516;2022-12-16T06:51:01;99753.56;;;-7.36;100.00
19748;BME280;10032;51.386;12.516;2022-12-16T06:53:45;99765.19;;;-7.39;100.00
19748;BME280;10032;51.386;12.516;2022-12-16T06:56:29;99774.59;;;-7.36;100.00
19748;BME280;10032;51.386;12.516;2022-12-16T06:59:13;99767.78;;;-7.29;100.00
19748;BME280;10032;51.386;12.516;2022-12-16T07:01:57;99772.34;;;-7.31;100.00
19748;BME280;10032;51.386;12.516;2022-12-16T07:04:41;99772.66;;;-7.34;100.00
19748;BME280;10032;51.386;12.516;2022-12-16T07:07:25;99776.34;;;-7.27;100.00
19748;BME280;10032;51.386;12.516;2022-12-16T07:10:09;99778.19;;;-7.28;100.00
19748;BME280;10032;51.386;12.516;2022-12-16T07:12:58;99782.22;;;-7.33;100.00
19748;BME280;10032;51.386;12.516;2022-12-16T07:15:42;99791.34;;;-7.37;100.00
19748;BME280;10032;51.386;12.516;2022-12-16T07:18:26;99791.66;;;-7.40;100.00
19748;BME280;10032;51.386;12.516;2022-12-16T07:21:10;99795.09;;;-7.40;100.00
19748;BME280;10032;51.386;12.516;2022-12-16T07:23:54;99793.00;;;-7.36;100.00
19748;BME280;10032;51.386;12.516;2022-12-16T07:26:38;99792.34;;;-7.38;100.00
19748;BME280;10032;51.386;12.516;2022-12-16T07:29:22;99799.56;;;-7.40;100.00
19748;BME280;10032;51.386;12.516;2022-12-16T07:32:06;99806.47;;;-7.39;100.00
19748;BME280;10032;51.386;12.516;2022-12-16T07:34:50;99809.75;;;-7.37;100.00
19748;BME280;10032;51.386;12.516;2022-12-16T07:37:36;99818.78;;;-7.40;100.00
19748;BME280;10032;51.386;12.516;2022-12-16T07:40:20;99820.16;;;-7.36;100.00
19748;BME280;10032;51.386;12.516;2022-12-16T07:43:04;99822.72;;;-7.26;100.00
19748;BME280;10032;51.386;12.516;2022-12-16T07:45:48;99828.38;;;-7.21;100.00
19748;BME280;10032;51.386;12.516;2022-12-16T07:48:31;99825.34;;;-7.17;100.00
19748;BME280;10032;51.386;12.516;2022-12-16T07:51:15;99834.16;;;-7.08;100.00
19748;BME280;10032;51.386;12.516;2022-12-16T07:53:59;99832.06;;;-7.05;100.00
19748;BME280;10032;51.386;12.516;2022-12-16T07:56:43;99840.63;;;-7.03;100.00
19748;BME280;10032;51.386;12.516;2022-12-16T07:59:27;99844.47;;;-6.97;100.00
19748;BME280;10032;51.386;12.516;2022-12-16T08:02:11;99843.03;;;-6.92;100.00
19748;BME280;10032;51.386;12.516;2022-12-16T08:04:55;99847.78;;;-6.95;100.00
19748;BME280;10032;51.386;12.516;2022-12-16T08:07:40;99851.09;;;-6.93;100.00
19748;BME280;10032;51.386;12.516;2022-12-16T08:10:24;99854.41;;;-6.91;100.00
19748;BME280;10032;51.386;12.516;2022-12-16T08:13:09;99867.69;;;-6.83;100.00
19748;BME280;10032;51.386;12.516;2022-12-16T08:15:53;99868.75;;;-6.76;100.00
19748;BME280;10032;51.386;12.516;2022-12-16T08:18:37;99874.09;;;-6.68;100.00
19748;BME280;10032;51.386;12.516;2022-12-16T08:21:21;99870.78;;;-6.70;100.00
19748;BME280;10032;51.386;12.516;2022-12-16T08:24:05;99874.28;;;-6.79;100.00
19748;BME280;10032;51.386;12.516;2022-12-16T08:26:49;99880.25;;;-6.77;100.00
19748;BME280;10032;51.386;12.516;2022-12-16T08:29:32;99872.63;;;-6.80;100.00
19748;BME280;10032;51.386;12.516;2022-12-16T08:32:16;99887.69;;;-6.73;100.00
19748;BME280;10032;51.386;12.516;2022-12-16T08:35:00;99888.53;;;-6.72;100.00
19748;BME280;10032;51.386;12.516;2022-12-16T08:37:45;99891.91;;;-6.62;100.00
19748;BME280;10032;51.386;12.516;2022-12-16T08:40:29;99886.38;;;-6.59;100.00
19748;BME280;10032;51.386;12.516;2022-12-16T08:43:13;99887.22;;;-6.59;100.00
19748;BME280;10032;51.386;12.516;2022-12-16T08:45:57;99884.72;;;-6.60;100.00
19748;BME280;10032;51.386;12.516;2022-12-16T08:48:41;99887.34;;;-6.60;100.00
19748;BME280;10032;51.386;12.516;2022-12-16T08:51:26;99880.25;;;-6.60;100.00
19748;BME280;10032;51.386;12.516;2022-12-16T08:54:10;99893.81;;;-6.55;100.00
19748;BME280;10032;51.386;12.516;2022-12-16T08:56:54;99886.63;;;-6.53;100.00
19748;BME280;10032;51.386;12.516;2022-12-16T08:59:38;99900.84;;;-6.46;100.00
19748;BME280;10032;51.386;12.516;2022-12-16T09:02:22;99908.47;;;-6.43;100.00
19748;BME280;10032;51.386;12.516;2022-12-16T09:05:06;99914.25;;;-6.39;100.00
19748;BME280;10032;51.386;12.516;2022-12-16T09:07:50;99911.69;;;-6.31;100.00
19748;BME280;10032;51.386;12.516;2022-12-16T09:10:35;99911.09;;;-6.25;100.00
19748;BME280;10032;51.386;12.516;2022-12-16T09:13:19;99919.09;;;-6.17;100.00
19748;BME280;10032;51.386;12.516;2022-12-16T09:16:03;99913.22;;;-6.11;100.00
19748;BME280;10032;51.386;12.516;2022-12-16T09:18:48;99913.91;;;-6.09;100.00
19748;BME280;10032;51.386;12.516;2022-12-16T09:21:32;99920.91;;;-6.00;100.00
19748;BME280;10032;51.386;12.516;2022-12-16T09:24:16;99922.16;;;-5.87;100.00
19748;BME280;10032;51.386;12.516;2022-12-16T09:27:00;99923.53;;;-5.83;100.00
19748;BME280;10032;51.386;12.516;2022-12-16T09:29:44;99924.03;;;-5.79;100.00
19748;BME280;10032;51.386;12.516;2022-12-16T09:32:28;99921.91;;;-5.76;100.00
19748;BME280;10032;51.386;12.516;2022-12-16T09:35:12;99926.13;;;-5.65;100.00
19748;BME280;10032;51.386;12.516;2022-12-16T09:37:56;99932.16;;;-5.55;100.00
19748;BME280;10032;51.386;12.516;2022-12-16T09:40:41;99917.88;;;-5.45;100.00
19748;BME280;10032;51.386;12.516;2022-12-16T09:52:25;99913.88;;;-4.98;100.00
19748;BME280;10032;51.386;12.516;2022-12-16T09:55:24;99934.56;;;-4.93;100.00
19748;BME280;10032;51.386;12.516;2022-12-16T09:58:10;99926.94;;;-4.96;100.00
19748;BME280;10032;51.386;12.516;2022-12-16T10:00:56;99935.69;;;-4.96;100.00
19748;BME280;10032;51.386;12.516;2022-12-16T10:03:41;99934.22;;;-4.90;100.00
19748;BME280;10032;51.386;12.516;2022-12-16T10:16:15;99945.00;;;-4.76;100.00
19748;BME280;10032;51.386;12.516;2022-12-16T10:25:30;99946.72;;;-4.67;100.00
19748;BME280;10032;51.386;12.516;2022-12-16T10:28:17;99950.72;;;-4.63;100.00
19748;BME280;10032;51.386;12.516;2022-12-16T10:31:02;99954.38;;;-4.56;100.00
19748;BME280;10032;51.386;12.516;2022-12-16T10:33:54;99962.66;;;-4.51;100.00
19748;BME280;10032;51.386;12.516;2022-12-16T10:36:39;99963.84;;;-4.45;100.00
19748;BME280;10032;51.386;12.516;2022-12-16T10:39:30;99960.56;;;-4.39;100.00
19748;BME280;10032;51.386;12.516;2022-12-16T10:45:16;99962.56;;;-4.25;100.00
19748;BME280;10032;51.386;12.516;2022-12-16T10:48:03;99965.44;;;-4.11;100.00
19748;BME280;10032;51.386;12.516;2022-12-16T10:50:47;99969.25;;;-4.05;100.00
19748;BME280;10032;51.386;12.516;2022-12-16T10:53:33;99971.72;;;-4.04;100.00
19748;BME280;10032;51.386;12.516;2022-12-16T10:59:13;99967.31;;;-3.87;100.00
19748;BME280;10032;51.386;12.516;2022-12-16T11:04:45;99970.63;;;-3.69;100.00
19748;BME280;10032;51.386;12.516;2022-12-16T11:07:39;99973.47;;;-3.63;100.00
19748;BME280;10032;51.386;12.516;2022-12-16T11:10:41;99965.19;;;-3.60;100.00
19748;BME280;10032;51.386;12.516;2022-12-16T11:13:35;99971.50;;;-3.53;100.00
19748;BME280;10032;51.386;12.516;2022-12-16T11:16:25;99972.63;;;-3.47;100.00
19748;BME280;10032;51.386;12.516;2022-12-16T11:19:24;99987.22;;;-3.43;100.00
19748;BME280;10032;51.386;12.516;2022-12-16T11:22:20;99984.06;;;-3.39;100.00
19748;BME280;10032;51.386;12.516;2022-12-16T11:25:20;99981.59;;;-3.32;100.00
19748;BME280;10032;51.386;12.516;2022-12-16T11:28:11;99986.03;;;-3.33;100.00
19748;BME280;10032;51.386;12.516;2022-12-16T11:31:00;99982.91;;;-3.28;100.00
19748;BME280;10032;51.386;12.516;2022-12-16T11:33:47;99980.75;;;-3.33;100.00
19748;BME280;10032;51.386;12.516;2022-12-16T11:36:32;99970.47;;;-3.28;100.00
19748;BME280;10032;51.386;12.516;2022-12-16T11:39:20;99984.41;;;-3.26;100.00
19748;BME280;10032;51.386;12.516;2022-12-16T11:42:05;99978.63;;;-3.29;100.00
19748;BME280;10032;51.386;12.516;2022-12-16T11:44:55;99985.22;;;-3.33;100.00
19748;BME280;10032;51.386;12.516;2022-12-16T11:47:55;99991.34;;;-3.25;100.00
19748;BME280;10032;51.386;12.516;2022-12-16T11:50:48;100005.06;;;-3.21;100.00
19748;BME280;10032;51.386;12.516;2022-12-16T11:53:43;99998.78;;;-3.20;100.00
19748;BME280;10032;51.386;12.516;2022-12-16T11:56:35;100004.75;;;-3.10;100.00
19748;BME280;10032;51.386;12.516;2022-12-16T11:59:32;100002.41;;;-3.05;100.00
19748;BME280;10032;51.386;12.516;2022-12-16T12:02:24;100005.75;;;-3.03;100.00
19748;BME280;10032;51.386;12.516;2022-12-16T12:05:14;99998.13;;;-3.06;100.00
19748;BME280;10032;51.386;12.516;2022-12-16T12:08:11;100004.91;;;-3.04;100.00
19748;BME280;10032;51.386;12.516;2022-12-16T12:11:05;100007.41;;;-3.02;100.00
19748;BME280;10032;51.386;12.516;2022-12-16T12:23:05;100008.69;;;-2.82;100.00
19748;BME280;10032;51.386;12.516;2022-12-16T12:34:20;100018.44;;;-2.67;100.00
19748;BME280;10032;51.386;12.516;2022-12-16T12:37:27;100019.75;;;-2.63;100.00
19748;BME280;10032;51.386;12.516;2022-12-16T12:46:54;100023.38;;;-2.56;100.00
19748;BME280;10032;51.386;12.516;2022-12-16T12:49:54;100025.19;;;-2.56;100.00
19748;BME280;10032;51.386;12.516;2022-12-16T12:52:53;100030.16;;;-2.53;100.00
19748;BME280;10032;51.386;12.516;2022-12-16T12:58:48;100034.63;;;-2.54;100.00
19748;BME280;10032;51.386;12.516;2022-12-16T13:01:35;100032.19;;;-2.55;100.00
19748;BME280;10032;51.386;12.516;2022-12-16T13:04:21;100038.13;;;-2.53;100.00
19748;BME280;10032;51.386;12.516;2022-12-16T13:07:06;100039.63;;;-2.51;100.00
19748;BME280;10032;51.386;12.516;2022-12-16T13:10:14;100044.72;;;-2.41;100.00
19748;BME280;10032;51.386;12.516;2022-12-16T13:13:33;100046.38;;;-2.40;100.00
19748;BME280;10032;51.386;12.516;2022-12-16T13:22:35;100058.66;;;-2.47;100.00
19748;BME280;10032;51.386;12.516;2022-12-16T13:25:50;100069.41;;;-2.49;100.00
19748;BME280;10032;51.386;12.516;2022-12-16T13:28:37;100063.31;;;-2.49;100.00
19748;BME280;10032;51.386;12.516;2022-12-16T13:31:23;100061.66;;;-2.50;100.00
19748;BME280;10032;51.386;12.516;2022-12-16T13:36:58;100073.44;;;-2.53;100.00
19748;BME280;10032;51.386;12.516;2022-12-16T13:40:16;100086.50;;;-2.51;100.00
19748;BME280;10032;51.386;12.516;2022-12-16T13:42:58;100084.84;;;-2.52;100.00
19748;BME280;10032;51.386;12.516;2022-12-16T13:46:13;100077.41;;;-2.57;100.00
19748;BME280;10032;51.386;12.516;2022-12-16T13:48:48;100088.81;;;-2.56;100.00
19748;BME280;10032;51.386;12.516;2022-12-16T13:55:10;100095.63;;;-2.62;100.00
19748;BME280;10032;51.386;12.516;2022-12-16T13:57:27;100107.38;;;-2.56;100.00
19748;BME280;10032;51.386;12.516;2022-12-16T14:00:18;100114.69;;;-2.50;100.00
19748;BME280;10032;51.386;12.516;2022-12-16T14:03:10;100115.00;;;-2.53;100.00
19748;BME280;10032;51.386;12.516;2022-12-16T14:05:55;100108.72;;;-2.52;100.00
19748;BME280;10032;51.386;12.516;2022-12-16T14:08:39;100117.66;;;-2.61;100.00
19748;BME280;10032;51.386;12.516;2022-12-16T14:11:35;100120.00;;;-2.66;100.00
19748;BME280;10032;51.386;12.516;2022-12-16T14:14:31;100131.41;;;-2.66;100.00
19748;BME280;10032;51.386;12.516;2022-12-16T14:17:32;100139.22;;;-2.64;100.00
19748;BME280;10032;51.386;12.516;2022-12-16T14:20:41;100141.88;;;-2.64;100.00
19748;BME280;10032;51.386;12.516;2022-12-16T14:23:36;100140.22;;;-2.65;100.00
19748;BME280;10032;51.386;12.516;2022-12-16T14:26:37;100147.16;;;-2.72;100.00
19748;BME280;10032;51.386;12.516;2022-12-16T14:29:24;100147.66;;;-2.77;100.00
19748;BME280;10032;51.386;12.516;2022-12-16T14:32:29;100151.47;;;-2.79;100.00
19748;BME280;10032;51.386;12.516;2022-12-16T14:38:29;100157.56;;;-2.87;100.00
19748;BME280;10032;51.386;12.516;2022-12-16T14:43:59;100172.97;;;-2.82;100.00
19748;BME280;10032;51.386;12.516;2022-12-16T14:46:49;100181.13;;;-2.84;100.00
19748;BME280;10032;51.386;12.516;2022-12-16T14:49:33;100181.59;;;-2.88;100.00
19748;BME280;10032;51.386;12.516;2022-12-16T14:52:22;100181.94;;;-2.91;100.00
19748;BME280;10032;51.386;12.516;2022-12-16T14:58:15;100185.34;;;-3.07;100.00
19748;BME280;10032;51.386;12.516;2022-12-16T15:01:11;100184.84;;;-3.10;100.00
19748;BME280;10032;51.386;12.516;2022-12-16T15:03:58;100181.06;;;-3.16;100.00
19748;BME280;10032;51.386;12.516;2022-12-16T15:06:45;100192.78;;;-3.18;100.00
19748;BME280;10032;51.386;12.516;2022-12-16T15:09:38;100189.13;;;-3.25;100.00
19748;BME280;10032;51.386;12.516;2022-12-16T15:12:27;100202.00;;;-3.30;100.00
19748;BME280;10032;51.386;12.516;2022-12-16T15:15:44;100195.38;;;-3.34;100.00
19748;BME280;10032;51.386;12.516;2022-12-16T15:18:36;100195.69;;;-3.45;100.00
19748;BME280;10032;51.386;12.516;2022-12-16T15:21:21;100210.72;;;-3.46;100.00
19748;BME280;10032;51.386;12.516;2022-12-16T15:24:09;100213.22;;;-3.44;100.00
19748;BME280;10032;51.386;12.516;2022-12-16T15:27:20;100208.91;;;-3.45;100.00
19748;BME280;10032;51.386;12.516;2022-12-16T15:33:16;100223.59;;;-3.51;100.00
19748;BME280;10032;51.386;12.516;2022-12-16T15:36:02;100227.13;;;-3.42;100.00
19748;BME280;10032;51.386;12.516;2022-12-16T15:38:46;100227.97;;;-3.42;100.00
19748;BME280;10032;51.386;12.516;2022-12-16T15:41:32;100224.63;;;-3.44;100.00
19748;BME280;10032;51.386;12.516;2022-12-16T15:44:19;100238.38;;;-3.40;100.00
19748;BME280;10032;51.386;12.516;2022-12-16T15:47:04;100232.75;;;-3.45;100.00
19748;BME280;10032;51.386;12.516;2022-12-16T15:49:50;100241.84;;;-3.48;100.00
19748;BME280;10032;51.386;12.516;2022-12-16T15:52:41;100244.16;;;-3.45;100.00